HKJKFMNM

Guest
Details From HKJK - Nairobi Jomo Kanyatta Intl
To FMNM - Philibert Tsiranana
Flight Number -
Tags Generated
Created
Modified
Stats Distance 1,026 nm / 1,901 km
Max Altitude 0 ft / 0 m
Waypoints 4
Social Downloads 0
Likes 0
Share VATSIM

Download

Looking for another format? Having issues loading an existing format? Contact us
Advertisement - Login to hide

Notes

Generated

Route

HKJK TG MG FMNM

ID Type Via Altitude Latitude Longitude Leg Dist Tot Dist Heading (true) Name
O HKJK APT - 0 ft / 0 m -1.32774˚ 36.91612˚ - 0 nm - -
TG NDB - 0 ft / 0 m -5.09393˚ 39.07198˚ 260 nm 260 nm 150° / 150° TANGA NDB
MG VOR - 0 ft / 0 m -15.65750˚ 46.34067˚ 765 nm 1026 nm 146° / 145° PHILIBERT TSIRANANA VOR-DME
O FMNM APT - 0 ft / 0 m -15.66046˚ 46.34422˚ 0 nm 1026 nm 131° / 131° -

Altitude Profile

Advertisement - Login to hide

Weather


0- 5 10 15 20 25 30 35+ Temperature / ° C

Clouds and Precipitation
Forecast for 2018-05-23 00:00 UTC. Updated 3 hours ago

Ground ~20,000 ft ~40,000 ft Winds

HKJK

Details ICAO HKJK (NBO)
Name Nairobi Jomo Kanyatta Intl
Region Kenya
Timezone Africa/Nairobi (UTC+3.0)
Stats Elevation 5,330 ft / 1,625 m (AMSL)
Location -1.317073° 36.930757°
Runways 1
Magnetic Variation 0.591° E

METAR

HKJK 230200Z 07006KT 9999 FEW002 BKN015 BKN090 16/16 Q1023

Decode

TAF

TAF TAF HKJK 222300Z 2300/2406 24005KT 9999 SHRA SCT024 BKN080 BECMG 2303/2306 14008KT BKN019 BKN080

Decode

Departure Runways

ID Width Length Bearing (true) Bearing (mag) Surface Threshold Offset Overrun Length
06 148 ft / 45 m 13,215 ft / 4,028 m 53.90° 53.31° Asphalt 0 ft / 0 m 194 ft / 59 m
24 148 ft / 45 m 13,215 ft / 4,028 m 233.90° 233.31° Asphalt 0 ft / 0 m 197 ft / 60 m

FMNM

Details ICAO FMNM (MJN)
Name PHILIBERT TSIRANANA
Region Comoros, Mayotte, Réunion and Madagascar
Timezone Indian/Antananarivo (UTC+3.0)
Stats Elevation 87 ft / 27 m (AMSL)
Location -15.667144° 46.351829°
Runways 1
Magnetic Variation 11.246° W

METAR

FMNM 230200Z 12004KT 9999 FEW040 23/18 Q1016

Decode

TAF

TAF FMNM 222300Z 2300/2324 14008KT 9999 FEW023 SCT040

Decode

Destination Runways

ID Width Length Bearing (true) Bearing (mag) Surface Threshold Offset Overrun Length
14 148 ft / 45 m 7,235 ft / 2,205 m 132.37° 143.62° Asphalt 0 ft / 0 m 98 ft / 30 m
32 148 ft / 45 m 7,235 ft / 2,205 m 312.37° 323.62° Asphalt 0 ft / 0 m 98 ft / 30 m